createdAt,value
2022-12-08T00:02:23.101Z,17.02
2022-12-08T00:05:14.396Z,17.92
2022-12-08T00:08:05.045Z,16.35
2022-12-08T00:10:48.931Z,17.83
2022-12-08T00:13:24.119Z,19.50
2022-12-08T00:16:02.940Z,18.17
2022-12-08T00:18:36.678Z,21.95
2022-12-08T00:21:12.381Z,23.98
2022-12-08T00:23:47.055Z,25.38
2022-12-08T00:26:23.692Z,24.27
2022-12-08T00:28:59.620Z,27.23
2022-12-08T00:31:34.665Z,22.45
2022-12-08T00:34:09.393Z,21.60
2022-12-08T00:36:44.900Z,22.75
2022-12-08T00:39:19.515Z,19.90
2022-12-08T00:42:15.752Z,20.98
2022-12-08T00:44:49.931Z,17.52
2022-12-08T00:47:25.369Z,20.50
2022-12-08T00:50:00.624Z,13.90
2022-12-08T00:52:35.361Z,14.75
2022-12-08T00:55:10.653Z,12.95
2022-12-08T00:57:46.815Z,12.20
2022-12-08T01:00:21.640Z,15.02
2022-12-08T01:02:55.679Z,13.30
2022-12-08T01:05:32.388Z,14.25
2022-12-08T01:08:08.902Z,12.57
2022-12-08T01:10:46.975Z,12.82
2022-12-08T01:13:22.080Z,11.98
2022-12-08T01:15:56.285Z,12.40
2022-12-08T01:18:30.703Z,11.45
2022-12-08T01:21:07.018Z,12.13
2022-12-08T01:23:41.053Z,11.27
2022-12-08T01:26:18.022Z,12.88
2022-12-08T01:28:53.190Z,12.48
2022-12-08T01:31:27.756Z,14.93
2022-12-08T01:34:02.321Z,12.80
2022-12-08T01:36:38.823Z,12.32
2022-12-08T01:39:16.788Z,12.02
2022-12-08T01:41:50.029Z,13.45
2022-12-08T01:44:54.688Z,12.80
2022-12-08T01:47:37.980Z,15.02
2022-12-08T01:50:15.460Z,17.65
2022-12-08T01:52:52.074Z,23.27
2022-12-08T01:55:31.607Z,19.48
2022-12-08T01:58:13.881Z,20.63
2022-12-08T02:00:50.250Z,20.80
2022-12-08T02:03:28.864Z,15.75
2022-12-08T02:06:03.889Z,14.50
2022-12-08T02:08:40.847Z,15.98
2022-12-08T02:11:15.384Z,18.98
2022-12-08T02:13:51.424Z,19.05
2022-12-08T02:16:37.425Z,19.00
2022-12-08T02:19:38.085Z,17.85
2022-12-08T02:22:16.411Z,16.60
2022-12-08T02:25:00.037Z,15.75
2022-12-08T02:27:49.267Z,15.63
2022-12-08T02:30:27.629Z,17.45
2022-12-08T02:33:25.550Z,12.65
2022-12-08T02:36:04.722Z,14.60
2022-12-08T02:38:50.192Z,10.88
2022-12-08T02:41:33.756Z,10.70
2022-12-08T02:44:13.857Z,11.82
2022-12-08T02:46:53.828Z,10.98
2022-12-08T02:49:30.416Z,10.43
2022-12-08T02:52:30.721Z,12.68
2022-12-08T02:55:07.632Z,10.95
2022-12-08T02:57:53.711Z,9.77
2022-12-08T03:00:30.821Z,10.93
2022-12-08T03:03:16.947Z,10.00
2022-12-08T03:06:02.410Z,11.25
2022-12-08T03:08:44.215Z,10.45
2022-12-08T03:11:22.647Z,10.32
2022-12-08T03:14:00.337Z,11.25
2022-12-08T03:16:37.932Z,9.85
2022-12-08T03:19:17.978Z,12.70
2022-12-08T03:21:54.245Z,11.93
2022-12-08T03:24:29.745Z,8.82
2022-12-08T03:27:05.830Z,9.80
2022-12-08T03:29:39.670Z,11.35
2022-12-08T03:32:20.123Z,8.90
2022-12-08T03:34:54.357Z,9.40
2022-12-08T03:37:28.959Z,10.30
2022-12-08T03:40:04.006Z,13.00
2022-12-08T03:42:37.821Z,11.25
2022-12-08T03:45:11.898Z,11.30
2022-12-08T03:47:45.173Z,12.43
2022-12-08T03:50:19.063Z,13.25
2022-12-08T03:52:52.302Z,16.15
2022-12-08T03:55:27.111Z,15.07
2022-12-08T03:58:00.421Z,12.85
2022-12-08T04:00:34.171Z,16.48
2022-12-08T04:03:07.656Z,16.77
2022-12-08T04:05:41.717Z,15.63
2022-12-08T04:08:15.052Z,15.90
2022-12-08T04:10:50.068Z,17.02
2022-12-08T04:13:23.500Z,15.43
2022-12-08T04:15:56.905Z,14.68
2022-12-08T04:18:30.567Z,13.38
2022-12-08T04:21:04.612Z,15.65
2022-12-08T04:23:38.069Z,15.50
2022-12-08T04:26:13.433Z,14.55
2022-12-08T04:28:47.236Z,17.08
2022-12-08T04:31:21.042Z,17.20
2022-12-08T04:33:55.070Z,17.95
2022-12-08T04:36:30.678Z,17.30
2022-12-08T04:39:05.055Z,15.82
2022-12-08T04:41:39.998Z,16.42
2022-12-08T04:44:13.756Z,21.67
2022-12-08T04:46:47.047Z,20.98
2022-12-08T04:49:20.399Z,20.00
2022-12-08T04:51:53.625Z,18.27
2022-12-08T04:54:27.106Z,18.35
2022-12-08T04:57:01.875Z,21.05
2022-12-08T04:59:35.231Z,18.83
2022-12-08T05:02:10.249Z,17.83
2022-12-08T05:04:44.200Z,18.05
2022-12-08T05:07:18.809Z,18.35
2022-12-08T05:09:53.064Z,19.58
2022-12-08T05:12:27.845Z,18.20
2022-12-08T05:15:01.116Z,18.52
2022-12-08T05:17:35.658Z,17.20
2022-12-08T05:20:11.214Z,16.58
2022-12-08T05:22:45.826Z,18.02
2022-12-08T05:25:20.793Z,19.50
2022-12-08T05:28:17.599Z,17.38
2022-12-08T05:30:50.754Z,16.42
2022-12-08T05:33:24.383Z,15.85
2022-12-08T05:35:58.715Z,18.02
2022-12-08T05:38:33.044Z,17.48
2022-12-08T05:41:09.318Z,14.82
2022-12-08T05:43:45.045Z,16.95
2022-12-08T05:46:20.375Z,18.00
2022-12-08T05:48:57.435Z,17.17
2022-12-08T05:51:31.369Z,16.75
2022-12-08T05:54:05.364Z,17.48
2022-12-08T05:56:38.620Z,17.45
2022-12-08T05:59:13.253Z,16.88
2022-12-08T06:01:46.606Z,17.45
2022-12-08T06:04:20.157Z,16.35
2022-12-08T06:06:53.825Z,16.75
2022-12-08T06:09:27.101Z,15.32
2022-12-08T06:12:00.536Z,17.30
2022-12-08T06:14:35.408Z,16.13
2022-12-08T06:17:09.232Z,16.60
2022-12-08T06:19:42.499Z,17.20
2022-12-08T06:22:16.547Z,18.00
2022-12-08T06:24:50.032Z,17.92
2022-12-08T06:27:23.279Z,18.23
2022-12-08T06:29:58.499Z,16.77
2022-12-08T06:32:34.835Z,16.27
2022-12-08T06:35:12.017Z,18.92
2022-12-08T06:37:45.274Z,18.23
2022-12-08T06:40:18.705Z,24.77
2022-12-08T06:42:51.919Z,24.23
2022-12-08T06:45:26.708Z,29.48
2022-12-08T06:47:59.941Z,36.75
2022-12-08T06:50:35.136Z,34.13
2022-12-08T06:53:08.390Z,29.10
2022-12-08T06:55:59.337Z,30.08
2022-12-08T06:58:33.090Z,35.05
2022-12-08T07:01:09.557Z,37.03
2022-12-08T07:03:45.307Z,32.45
2022-12-08T07:06:23.058Z,33.95
2022-12-08T07:08:56.361Z,31.75
2022-12-08T07:11:29.651Z,34.20
2022-12-08T07:14:02.891Z,33.72
2022-12-08T07:16:37.750Z,29.52
2022-12-08T07:19:13.073Z,30.65
2022-12-08T07:21:46.337Z,30.13
2022-12-08T07:24:19.596Z,29.83
2022-12-08T07:26:52.853Z,26.73
2022-12-08T07:29:26.625Z,24.65
2022-12-08T07:32:01.257Z,27.50
2022-12-08T07:34:35.213Z,27.42
2022-12-08T07:37:08.764Z,24.25
2022-12-08T07:39:42.183Z,25.42
2022-12-08T07:42:15.512Z,26.83
2022-12-08T07:44:53.165Z,28.33
2022-12-08T07:47:27.899Z,24.52
2022-12-08T07:50:01.554Z,27.13
2022-12-08T07:52:36.256Z,30.42
2022-12-08T07:55:10.462Z,27.67
2022-12-08T07:57:44.179Z,33.67
2022-12-08T08:00:18.234Z,34.15
2022-12-08T08:02:53.284Z,27.45
2022-12-08T08:05:26.799Z,28.90
2022-12-08T08:08:00.196Z,24.05
2022-12-08T08:10:33.575Z,31.00
2022-12-08T08:13:07.145Z,27.58
2022-12-08T08:15:40.589Z,25.42
2022-12-08T08:18:15.699Z,24.05
2022-12-08T08:20:49.143Z,26.30
2022-12-08T08:23:22.373Z,25.20
2022-12-08T08:25:56.082Z,22.38
2022-12-08T08:28:29.714Z,23.80
2022-12-08T08:31:04.184Z,20.75
2022-12-08T08:33:38.903Z,21.33
2022-12-08T08:36:12.753Z,20.05
2022-12-08T08:38:45.997Z,16.05
2022-12-08T08:41:19.606Z,17.65
2022-12-08T08:43:53.025Z,19.20
2022-12-08T08:46:26.540Z,16.48
2022-12-08T08:49:01.780Z,14.38
2022-12-08T08:51:35.438Z,11.93
2022-12-08T08:54:09.069Z,14.90
2022-12-08T08:56:42.334Z,14.23
2022-12-08T08:59:15.806Z,14.77
2022-12-08T09:01:49.131Z,12.32
2022-12-08T09:04:24.482Z,12.90
2022-12-08T09:06:58.044Z,10.40
2022-12-08T09:09:31.458Z,8.73
2022-12-08T09:12:05.065Z,9.85
2022-12-08T09:14:38.641Z,8.48
2022-12-08T09:17:11.884Z,10.30
2022-12-08T09:19:46.979Z,12.10
2022-12-08T09:22:20.248Z,10.90
2022-12-08T09:24:53.676Z,9.57
2022-12-08T09:27:26.945Z,9.55
2022-12-08T09:30:00.584Z,10.93
2022-12-08T09:32:33.859Z,11.82
2022-12-08T09:35:09.244Z,11.93
2022-12-08T09:37:42.536Z,10.63
2022-12-08T09:40:19.624Z,10.30
2022-12-08T09:42:56.551Z,10.82
2022-12-08T09:45:34.679Z,9.88
2022-12-08T09:48:14.603Z,10.43
2022-12-08T09:50:53.749Z,9.23
2022-12-08T09:53:35.263Z,10.52
2022-12-08T09:56:16.357Z,29.02
2022-12-08T09:58:53.969Z,14.23
2022-12-08T10:01:29.924Z,14.63
2022-12-08T10:04:04.276Z,14.75
2022-12-08T10:06:46.375Z,13.13
2022-12-08T10:09:28.927Z,13.32
2022-12-08T10:14:43.593Z,9.13
2022-12-08T10:17:21.526Z,10.63
2022-12-08T10:20:01.048Z,8.35
2022-12-08T10:22:41.284Z,9.98
2022-12-08T10:25:20.739Z,8.23
2022-12-08T10:27:55.940Z,9.27
2022-12-08T10:30:29.266Z,8.57
2022-12-08T10:33:02.672Z,8.82
2022-12-08T10:35:45.602Z,7.53
2022-12-08T10:38:23.600Z,7.30
2022-12-08T10:41:05.644Z,8.00
2022-12-08T10:43:45.211Z,8.18
2022-12-08T10:46:21.064Z,8.15
2022-12-08T10:48:56.428Z,8.13
2022-12-08T10:51:31.887Z,7.18
2022-12-08T10:54:07.146Z,7.90
2022-12-08T10:56:40.595Z,7.07
2022-12-08T10:59:16.098Z,5.80
2022-12-08T11:01:51.014Z,6.50
2022-12-08T11:04:31.117Z,7.45
2022-12-08T11:07:07.415Z,6.00
2022-12-08T11:09:48.161Z,6.55
2022-12-08T11:12:22.982Z,7.28
2022-12-08T11:15:02.353Z,7.10
2022-12-08T11:17:39.528Z,8.02
2022-12-08T11:20:24.190Z,8.55
2022-12-08T11:22:57.739Z,7.85
2022-12-08T11:25:32.863Z,8.57
2022-12-08T11:28:11.284Z,8.05
2022-12-08T11:30:48.851Z,7.68
2022-12-08T11:33:24.977Z,8.45
2022-12-08T11:36:03.333Z,8.25
2022-12-08T11:38:42.678Z,7.80
2022-12-08T11:41:19.887Z,7.63
2022-12-08T11:44:00.308Z,7.18
2022-12-08T11:46:37.915Z,8.40
2022-12-08T11:49:13.483Z,7.53
2022-12-08T11:51:51.906Z,8.48
2022-12-08T11:54:29.556Z,7.22
2022-12-08T11:57:06.945Z,7.38
2022-12-08T11:59:44.438Z,5.90
2022-12-08T12:02:20.933Z,6.85
2022-12-08T12:05:01.547Z,6.85
2022-12-08T12:08:00.044Z,6.28
2022-12-08T12:10:56.361Z,6.05
2022-12-08T12:13:46.879Z,6.25
2022-12-08T12:16:47.296Z,5.57
2022-12-08T12:19:22.413Z,6.45
2022-12-08T12:21:57.867Z,7.95
2022-12-08T12:24:36.255Z,5.65
2022-12-08T12:27:23.865Z,6.72
2022-12-08T12:30:01.022Z,6.35
2022-12-08T12:32:45.243Z,6.63
2022-12-08T12:35:33.860Z,6.15
2022-12-08T12:38:28.726Z,6.28
2022-12-08T12:41:05.255Z,7.90
2022-12-08T12:43:40.600Z,9.45
2022-12-08T12:46:41.193Z,6.97
2022-12-08T12:49:50.629Z,8.82
2022-12-08T12:52:41.719Z,9.27
2022-12-08T12:55:26.966Z,9.85
2022-12-08T12:58:04.636Z,9.80
2022-12-08T13:00:38.094Z,8.60
2022-12-08T13:03:18.103Z,13.85
2022-12-08T13:05:54.203Z,11.80
2022-12-08T13:08:29.015Z,9.05
2022-12-08T13:11:05.911Z,10.20
2022-12-08T13:13:40.825Z,7.07
2022-12-08T13:16:22.492Z,10.60
2022-12-08T13:19:02.392Z,11.07
2022-12-08T13:21:39.007Z,8.88
2022-12-08T13:24:26.725Z,8.90
2022-12-08T13:27:35.549Z,10.43
2022-12-08T13:30:43.993Z,9.40
2022-12-08T13:33:20.799Z,7.25
2022-12-08T13:36:22.506Z,8.57
2022-12-08T13:38:58.929Z,15.75
2022-12-08T13:41:38.191Z,21.45
2022-12-08T13:47:35.758Z,16.42
2022-12-08T13:59:28.450Z,13.48
2022-12-08T14:02:17.093Z,20.13
2022-12-08T14:05:23.764Z,39.47
2022-12-08T14:07:44.928Z,43.55
2022-12-08T14:10:22.089Z,27.92
2022-12-08T14:12:59.156Z,29.92
2022-12-08T14:15:38.221Z,24.70
2022-12-08T14:18:25.078Z,30.65
2022-12-08T14:21:21.226Z,20.70
2022-12-08T14:23:54.966Z,24.40
2022-12-08T14:26:36.219Z,23.85
2022-12-08T14:29:10.011Z,25.83
2022-12-08T14:31:43.327Z,24.67
2022-12-08T14:34:16.899Z,23.75
2022-12-08T14:36:50.353Z,17.77
2022-12-08T14:39:23.770Z,21.73
2022-12-08T14:42:02.472Z,18.08
2022-12-08T14:44:41.185Z,19.13
2022-12-08T14:47:21.041Z,22.58
2022-12-08T14:49:54.354Z,21.05
2022-12-08T14:52:28.765Z,21.13
2022-12-08T14:55:02.113Z,19.77
2022-12-08T14:57:37.132Z,17.95
2022-12-08T15:00:12.445Z,23.27
2022-12-08T15:02:47.637Z,28.00
2022-12-08T15:05:22.813Z,30.67
2022-12-08T15:08:02.573Z,30.60
2022-12-08T15:10:38.142Z,30.00
2022-12-08T15:13:23.956Z,26.83
2022-12-08T15:15:58.702Z,24.40
2022-12-08T15:18:38.273Z,24.70
2022-12-08T15:21:13.713Z,26.13
2022-12-08T15:23:49.883Z,29.10
2022-12-08T15:26:24.869Z,23.27
2022-12-08T15:28:59.505Z,24.35
2022-12-08T15:31:32.797Z,28.50
2022-12-08T15:34:06.084Z,33.60
2022-12-08T15:36:40.112Z,48.42
2022-12-08T15:39:32.507Z,47.22
2022-12-08T15:42:12.585Z,42.72
2022-12-08T15:44:47.227Z,44.97
2022-12-08T15:47:23.207Z,33.30
2022-12-08T15:49:56.583Z,36.28
2022-12-08T15:52:29.892Z,32.20
2022-12-08T15:55:03.210Z,33.40
2022-12-08T15:58:30.781Z,38.20
2022-12-08T16:09:19.330Z,35.53
2022-12-08T16:12:10.632Z,34.85
2022-12-08T16:17:40.503Z,33.35
2022-12-08T16:20:16.815Z,30.98
2022-12-08T16:23:03.228Z,32.97
2022-12-08T16:26:08.952Z,38.85
2022-12-08T16:31:28.009Z,30.15
2022-12-08T16:34:02.754Z,35.85
2022-12-08T16:36:36.189Z,38.05
2022-12-08T16:39:11.681Z,34.28
2022-12-08T16:42:02.420Z,37.75
2022-12-08T16:44:41.487Z,40.53
2022-12-08T16:47:14.830Z,38.13
2022-12-08T16:49:49.487Z,33.05
2022-12-08T16:52:22.863Z,37.47
2022-12-08T16:54:56.258Z,34.35
2022-12-08T16:57:29.644Z,35.00
2022-12-08T17:00:03.455Z,34.75
2022-12-08T17:02:37.174Z,38.55
2022-12-08T17:05:13.803Z,36.45
2022-12-08T17:07:49.657Z,34.63
2022-12-08T17:10:25.186Z,32.75
2022-12-08T17:12:58.566Z,35.90
2022-12-08T17:15:31.915Z,45.13
2022-12-08T17:18:05.380Z,50.55
2022-12-08T17:20:40.792Z,52.75
2022-12-08T17:23:14.063Z,60.63
2022-12-08T17:25:58.765Z,47.25
2022-12-08T17:28:58.848Z,44.38
2022-12-08T17:31:29.575Z,43.35
2022-12-08T17:34:05.299Z,42.42
2022-12-08T17:36:40.039Z,43.33
2022-12-08T17:39:18.718Z,43.10
2022-12-08T17:41:52.505Z,91.38
2022-12-08T17:44:25.800Z,90.72
2022-12-08T17:46:59.242Z,83.30
2022-12-08T17:49:34.026Z,63.95
2022-12-08T17:52:08.680Z,74.63
2022-12-08T17:54:41.933Z,69.93
2022-12-08T17:57:15.222Z,67.85
2022-12-08T17:59:48.484Z,65.95
2022-12-08T18:02:22.284Z,61.33
2022-12-08T18:04:55.654Z,52.33
2022-12-08T18:07:30.361Z,65.82
2022-12-08T18:10:04.097Z,69.47
2022-12-08T18:12:37.781Z,74.53
2022-12-08T18:15:13.131Z,83.25
2022-12-08T18:17:47.235Z,76.35
2022-12-08T18:20:20.604Z,72.65
2022-12-08T18:22:55.503Z,64.72
2022-12-08T18:25:28.811Z,54.78
2022-12-08T18:28:02.103Z,57.00
2022-12-08T18:30:35.434Z,53.13
2022-12-08T18:33:09.102Z,59.22
2022-12-08T18:35:42.374Z,54.17
2022-12-08T18:38:17.261Z,53.45
2022-12-08T18:40:50.596Z,51.95
2022-12-08T18:43:23.894Z,56.53
2022-12-08T18:46:02.774Z,54.75
2022-12-08T18:48:36.847Z,54.22
2022-12-08T18:51:10.866Z,58.58
2022-12-08T18:53:46.020Z,63.17
2022-12-08T18:56:23.401Z,61.78
2022-12-08T18:59:02.903Z,52.25
2022-12-08T19:01:38.435Z,51.05
2022-12-08T19:04:28.858Z,53.70
2022-12-08T19:07:02.758Z,55.80
2022-12-08T19:09:38.134Z,49.38
2022-12-08T19:12:12.991Z,52.30
2022-12-08T19:14:46.275Z,56.38
2022-12-08T19:17:19.595Z,55.00
2022-12-08T19:19:52.983Z,56.65
2022-12-08T19:22:26.265Z,61.80
2022-12-08T19:25:00.916Z,69.45
2022-12-08T19:27:34.804Z,63.08
2022-12-08T19:30:09.629Z,59.80
2022-12-08T19:32:43.107Z,55.97
2022-12-08T19:35:16.439Z,63.88
2022-12-08T19:37:49.780Z,66.78
2022-12-08T19:40:41.993Z,66.45
2022-12-08T19:43:35.762Z,61.75
2022-12-08T19:46:10.086Z,63.53
2022-12-08T19:48:43.667Z,71.13
2022-12-08T19:51:16.952Z,76.28
2022-12-08T19:53:51.555Z,77.90
2022-12-08T19:56:26.234Z,62.95
2022-12-08T19:58:59.518Z,82.95
2022-12-08T20:01:33.322Z,70.90
2022-12-08T20:04:06.881Z,77.10
2022-12-08T20:06:40.209Z,71.15
2022-12-08T20:09:13.828Z,75.25
2022-12-08T20:11:48.555Z,85.07
2022-12-08T20:14:22.245Z,72.65
2022-12-08T20:16:55.636Z,65.68
2022-12-08T20:19:29.797Z,69.07
2022-12-08T20:22:04.203Z,74.00
2022-12-08T20:24:37.535Z,71.78
2022-12-08T20:27:12.275Z,70.95
2022-12-08T20:29:45.631Z,67.20
2022-12-08T20:32:18.929Z,79.65
2022-12-08T20:34:52.390Z,72.60
2022-12-08T20:37:25.705Z,71.82
2022-12-08T20:39:59.186Z,69.82
2022-12-08T20:42:33.851Z,61.20
2022-12-08T20:45:09.682Z,64.35
2022-12-08T20:47:43.284Z,70.50
2022-12-08T20:50:16.608Z,59.22
2022-12-08T20:52:49.901Z,63.60
2022-12-08T20:55:23.160Z,60.97
2022-12-08T20:57:57.968Z,54.33
2022-12-08T21:00:31.317Z,59.40
2022-12-08T21:03:04.823Z,58.30
2022-12-08T21:05:38.985Z,58.25
2022-12-08T21:08:12.443Z,57.00
2022-12-08T21:10:45.907Z,73.30
2022-12-08T21:13:20.663Z,70.50
2022-12-08T21:15:54.507Z,66.72
2022-12-08T21:18:27.984Z,60.70
2022-12-08T21:21:05.560Z,65.80
2022-12-08T21:23:38.968Z,60.75
2022-12-08T21:26:13.492Z,60.35
2022-12-08T21:28:48.843Z,47.25
2022-12-08T21:31:22.822Z,49.15
2022-12-08T21:33:56.368Z,48.85
2022-12-08T21:36:29.863Z,50.00
2022-12-08T21:39:04.786Z,46.83
2022-12-08T21:41:56.310Z,49.20
2022-12-08T21:44:31.024Z,61.33
2022-12-08T21:47:04.700Z,57.00
2022-12-08T21:49:39.177Z,49.47
2022-12-08T21:52:12.448Z,47.10
2022-12-08T21:54:46.093Z,48.65
2022-12-08T21:57:19.394Z,55.63
2022-12-08T21:59:54.395Z,55.97
2022-12-08T22:02:28.335Z,60.83
2022-12-08T22:05:02.184Z,57.45
2022-12-08T22:07:38.334Z,53.45
2022-12-08T22:10:15.769Z,54.92
2022-12-08T22:12:49.181Z,55.47
2022-12-08T22:15:23.988Z,60.03
2022-12-08T22:17:57.394Z,60.05
2022-12-08T22:20:31.147Z,59.25
2022-12-08T22:23:04.576Z,58.55
2022-12-08T22:25:38.005Z,50.75
2022-12-08T22:28:11.513Z,56.03
2022-12-08T22:30:46.167Z,59.05
2022-12-08T22:33:19.467Z,55.45
2022-12-08T22:36:02.214Z,56.97
2022-12-08T22:38:38.357Z,57.35
2022-12-08T22:41:12.452Z,51.88
2022-12-08T22:43:46.266Z,49.42
2022-12-08T22:46:22.982Z,44.65
2022-12-08T22:48:56.683Z,52.65
2022-12-08T22:51:30.140Z,49.35
2022-12-08T22:54:03.648Z,49.50
2022-12-08T22:56:36.884Z,53.78
2022-12-08T22:59:10.337Z,71.57
2022-12-08T23:01:45.383Z,70.28
2022-12-08T23:04:18.928Z,49.17
2022-12-08T23:06:52.260Z,53.95
2022-12-08T23:09:25.612Z,48.35
2022-12-08T23:11:59.153Z,51.38
2022-12-08T23:14:32.402Z,53.45
2022-12-08T23:17:07.158Z,51.88
2022-12-08T23:19:41.124Z,51.15
2022-12-08T23:22:33.471Z,51.05
2022-12-08T23:25:07.764Z,50.72
2022-12-08T23:27:41.078Z,51.85
2022-12-08T23:30:15.598Z,50.60
2022-12-08T23:32:50.492Z,48.25
2022-12-08T23:35:24.465Z,51.75
2022-12-08T23:37:57.999Z,49.67
2022-12-08T23:40:31.587Z,49.08
2022-12-08T23:43:07.080Z,44.95
2022-12-08T23:45:40.628Z,49.50
2022-12-08T23:48:15.587Z,53.05
2022-12-08T23:50:49.455Z,50.45
2022-12-08T23:53:22.989Z,46.83
2022-12-08T23:56:00.279Z,48.22
2022-12-08T23:58:34.151Z,47.28
